createdAt,value
2022-12-19T00:01:23.757Z,-4.05
2022-12-19T00:03:56.354Z,-4.10
2022-12-19T00:06:26.123Z,-4.36
2022-12-19T00:08:57.030Z,-4.28
2022-12-19T00:11:28.107Z,-4.24
2022-12-19T00:13:56.739Z,-4.81
2022-12-19T00:16:28.322Z,-4.31
2022-12-19T00:19:01.583Z,-4.48
2022-12-19T00:21:35.083Z,-4.43
2022-12-19T00:24:06.616Z,-4.95
2022-12-19T00:26:51.148Z,-4.34
2022-12-19T00:29:19.656Z,-4.41
2022-12-19T00:31:47.933Z,-4.38
2022-12-19T00:34:16.995Z,-5.05
2022-12-19T00:36:45.287Z,-4.41
2022-12-19T00:39:13.667Z,-4.47
2022-12-19T00:41:42.898Z,-4.36
2022-12-19T00:44:15.574Z,-4.41
2022-12-19T00:46:51.511Z,-4.64
2022-12-19T00:49:21.926Z,-4.37
2022-12-19T00:51:50.372Z,-4.26
2022-12-19T00:54:18.864Z,-4.31
2022-12-19T00:56:47.277Z,-4.35
2022-12-19T00:59:18.117Z,-4.34
2022-12-19T01:01:54.911Z,-4.38
2022-12-19T01:04:32.648Z,-4.41
2022-12-19T01:07:05.817Z,-4.46
2022-12-19T01:09:36.862Z,-4.54
2022-12-19T01:12:25.185Z,-5.17
2022-12-19T01:15:04.622Z,-4.93
2022-12-19T01:17:43.797Z,-4.93
2022-12-19T01:20:15.345Z,-4.85
2022-12-19T01:22:43.848Z,-4.73
2022-12-19T01:25:15.954Z,-5.22
2022-12-19T01:27:44.390Z,-4.65
2022-12-19T01:30:14.870Z,-4.75
2022-12-19T01:32:43.738Z,-4.62
2022-12-19T01:35:21.710Z,-4.84
2022-12-19T01:37:51.492Z,-4.55
2022-12-19T01:40:21.632Z,-4.52
2022-12-19T01:42:50.989Z,-4.52
2022-12-19T01:45:34.425Z,-4.46
2022-12-19T01:48:17.179Z,-4.35
2022-12-19T01:51:00.981Z,-4.53
2022-12-19T01:53:48.692Z,-5.02
2022-12-19T01:56:23.604Z,-3.78
2022-12-19T01:59:05.126Z,-3.78
2022-12-19T02:01:51.011Z,-3.25
2022-12-19T02:04:25.987Z,-3.38
2022-12-19T02:06:58.529Z,-3.36
2022-12-19T02:09:28.735Z,-3.06
2022-12-19T02:11:59.920Z,-3.02
2022-12-19T02:14:29.720Z,-3.08
2022-12-19T02:17:14.473Z,-3.20
2022-12-19T02:20:43.997Z,-2.99
2022-12-19T02:23:52.559Z,-3.10
2022-12-19T02:26:52.952Z,-2.97
2022-12-19T02:30:01.423Z,-3.08
2022-12-19T02:32:38.875Z,-3.12
2022-12-19T02:35:18.646Z,-3.15
2022-12-19T02:37:57.766Z,-3.33
2022-12-19T02:40:36.995Z,-3.15
2022-12-19T02:43:11.012Z,-3.06
2022-12-19T02:45:43.306Z,-3.06
2022-12-19T02:48:18.882Z,-3.09
2022-12-19T02:50:50.417Z,-3.12
2022-12-19T02:53:23.661Z,-3.58
2022-12-19T02:56:28.825Z,-3.38
2022-12-19T02:59:27.080Z,-3.25
2022-12-19T03:02:06.126Z,-3.18
2022-12-19T03:04:50.693Z,-3.14
2022-12-19T03:07:31.824Z,-3.29
2022-12-19T03:10:16.707Z,-3.01
2022-12-19T03:12:54.593Z,-3.01
2022-12-19T03:15:25.573Z,-2.96
2022-12-19T03:18:00.527Z,-3.11
2022-12-19T03:20:44.678Z,-2.90
2022-12-19T03:23:13.721Z,-3.07
2022-12-19T03:25:46.721Z,-2.91
2022-12-19T03:28:22.282Z,-2.86
2022-12-19T03:30:51.573Z,-3.53
2022-12-19T03:33:23.501Z,-2.84
2022-12-19T03:35:56.386Z,-2.87
2022-12-19T03:38:26.442Z,-2.84
2022-12-19T03:40:57.979Z,-2.81
2022-12-19T03:43:29.238Z,-2.83
2022-12-19T03:46:03.304Z,-3.03
2022-12-19T03:48:40.697Z,-2.79
2022-12-19T03:51:23.212Z,-2.82
2022-12-19T03:54:03.267Z,-2.79
2022-12-19T03:56:42.424Z,-2.83
2022-12-19T03:59:17.521Z,-2.84
2022-12-19T04:01:47.874Z,-2.94
2022-12-19T04:04:17.473Z,-2.89
2022-12-19T04:06:49.813Z,-2.92
2022-12-19T04:09:22.602Z,-2.94
2022-12-19T04:11:56.255Z,-2.96
2022-12-19T04:14:31.497Z,-2.95
2022-12-19T04:17:12.070Z,-2.92
2022-12-19T04:19:49.056Z,-2.94
2022-12-19T04:22:33.403Z,-2.97
2022-12-19T04:25:09.712Z,-2.96
2022-12-19T04:27:47.843Z,-3.12
2022-12-19T04:30:19.840Z,-2.89
2022-12-19T04:32:49.571Z,-3.23
2022-12-19T04:35:18.372Z,-2.89
2022-12-19T04:37:48.215Z,-2.92
2022-12-19T04:40:16.977Z,-2.89
2022-12-19T04:42:45.268Z,-3.14
2022-12-19T04:45:13.591Z,-3.28
2022-12-19T04:47:42.071Z,-2.78
2022-12-19T04:50:11.485Z,-2.73
2022-12-19T04:52:39.833Z,-2.61
2022-12-19T04:55:11.141Z,-3.34
2022-12-19T04:57:39.756Z,-2.50
2022-12-19T05:00:09.868Z,-2.45
2022-12-19T05:02:39.966Z,-2.46
2022-12-19T05:05:10.394Z,-2.32
2022-12-19T05:07:38.840Z,-2.29
2022-12-19T05:10:10.179Z,-2.23
2022-12-19T05:12:38.949Z,-2.19
2022-12-19T05:15:08.918Z,-2.14
2022-12-19T05:17:37.788Z,-2.24
2022-12-19T05:20:08.744Z,-2.30
2022-12-19T05:22:37.031Z,-2.12
2022-12-19T05:25:06.417Z,-1.97
2022-12-19T05:27:37.242Z,-2.09
2022-12-19T05:30:07.136Z,-1.99
2022-12-19T05:32:35.490Z,-1.86
2022-12-19T05:35:03.751Z,-1.83
2022-12-19T05:37:32.070Z,-1.82
2022-12-19T05:40:00.583Z,-2.41
2022-12-19T05:42:28.985Z,-1.79
2022-12-19T05:44:58.654Z,-1.91
2022-12-19T05:47:27.201Z,-1.83
2022-12-19T05:49:55.428Z,-1.88
2022-12-19T05:52:24.764Z,-1.94
2022-12-19T05:54:53.154Z,-2.30
2022-12-19T05:57:21.610Z,-2.05
2022-12-19T05:59:49.904Z,-2.07
2022-12-19T06:02:19.814Z,-2.16
2022-12-19T06:04:48.437Z,-2.35
2022-12-19T06:07:20.874Z,-2.32
2022-12-19T06:09:49.780Z,-2.40
2022-12-19T06:12:18.483Z,-2.38
2022-12-19T06:14:47.242Z,-2.28
2022-12-19T06:17:15.627Z,-2.19
2022-12-19T06:19:46.103Z,-2.10
2022-12-19T06:22:14.464Z,-2.08
2022-12-19T06:24:42.939Z,-2.29
2022-12-19T06:27:11.307Z,-2.10
2022-12-19T06:29:39.567Z,-2.26
2022-12-19T06:32:08.676Z,-2.60
2022-12-19T06:35:03.225Z,-2.35
2022-12-19T06:37:27.114Z,-2.16
2022-12-19T06:39:55.475Z,-2.18
2022-12-19T06:42:22.926Z,-2.18
2022-12-19T06:44:52.361Z,-2.16
2022-12-19T06:47:22.186Z,-2.42
2022-12-19T06:49:50.606Z,-2.12
2022-12-19T06:52:19.402Z,-2.16
2022-12-19T06:54:49.062Z,-2.12
2022-12-19T06:57:17.846Z,-2.12
2022-12-19T06:59:46.144Z,-2.10
2022-12-19T07:02:29.646Z,-2.05
2022-12-19T07:05:04.461Z,-2.31
2022-12-19T07:07:33.655Z,-1.96
2022-12-19T07:10:04.531Z,-2.16
2022-12-19T07:12:33.039Z,-2.46
2022-12-19T07:15:01.334Z,-1.76
2022-12-19T07:17:31.097Z,-1.81
2022-12-19T07:20:00.265Z,-1.59
2022-12-19T07:22:34.909Z,-1.83
2022-12-19T07:25:07.183Z,-1.97
2022-12-19T07:27:37.865Z,-1.96
2022-12-19T07:30:08.972Z,-1.24
2022-12-19T07:32:37.330Z,-1.35
2022-12-19T07:35:07.029Z,-1.25
2022-12-19T07:37:35.614Z,-1.15
2022-12-19T07:40:06.540Z,-0.93
2022-12-19T07:42:35.248Z,-0.87
2022-12-19T07:45:03.573Z,-1.03
2022-12-19T07:47:32.015Z,-0.87
2022-12-19T07:50:01.477Z,-0.62
2022-12-19T07:52:30.127Z,-0.59
2022-12-19T07:54:58.512Z,-0.40
2022-12-19T07:57:28.230Z,-0.23
2022-12-19T07:59:56.483Z,-0.40
2022-12-19T08:02:25.046Z,-0.18
2022-12-19T08:04:53.609Z,-0.06
2022-12-19T08:07:22.101Z,0.25
2022-12-19T08:09:50.670Z,0.35
2022-12-19T08:12:18.991Z,0.48
2022-12-19T08:14:51.592Z,0.40
2022-12-19T08:17:22.635Z,0.66
2022-12-19T08:19:51.109Z,0.80
2022-12-19T08:22:19.501Z,0.86
2022-12-19T08:24:47.917Z,0.94
2022-12-19T08:27:17.832Z,1.03
2022-12-19T08:29:46.235Z,1.08
2022-12-19T08:32:21.292Z,0.96
2022-12-19T08:34:50.633Z,1.21
2022-12-19T08:37:19.269Z,1.26
2022-12-19T08:39:47.622Z,1.31
2022-12-19T08:42:15.871Z,1.41
2022-12-19T08:44:44.821Z,1.41
2022-12-19T08:47:13.104Z,1.00
2022-12-19T08:49:42.794Z,0.76
2022-12-19T08:52:11.316Z,1.39
2022-12-19T08:54:40.211Z,1.67
2022-12-19T08:57:08.524Z,1.71
2022-12-19T08:59:36.825Z,1.67
2022-12-19T09:02:06.600Z,1.53
2022-12-19T09:06:02.149Z,1.65
2022-12-19T09:07:24.791Z,1.69
2022-12-19T09:09:53.548Z,1.68
2022-12-19T09:12:21.827Z,1.56
2022-12-19T09:14:51.639Z,1.73
2022-12-19T09:17:20.794Z,1.39
2022-12-19T09:19:49.133Z,1.60
2022-12-19T09:22:17.728Z,1.76
2022-12-19T09:24:47.753Z,1.77
2022-12-19T09:27:16.162Z,1.60
2022-12-19T09:29:44.892Z,1.78
2022-12-19T09:32:13.394Z,2.11
2022-12-19T09:34:41.775Z,2.01
2022-12-19T09:37:16.983Z,2.34
2022-12-19T09:39:48.592Z,1.90
2022-12-19T09:42:44.719Z,2.20
2022-12-19T09:45:40.364Z,2.44
2022-12-19T09:48:24.233Z,2.38
2022-12-19T09:51:10.249Z,2.14
2022-12-19T09:53:57.211Z,2.26
2022-12-19T09:56:34.039Z,2.48
2022-12-19T09:59:26.618Z,1.67
2022-12-19T10:02:15.725Z,2.51
2022-12-19T10:05:10.204Z,2.51
2022-12-19T10:08:07.201Z,2.23
2022-12-19T10:12:46.511Z,2.64
2022-12-19T10:13:54.280Z,2.34
2022-12-19T10:16:56.489Z,1.73
2022-12-19T10:19:49.953Z,2.81
2022-12-19T10:22:29.465Z,1.34
2022-12-19T10:25:17.741Z,2.37
2022-12-19T10:27:59.446Z,3.17
2022-12-19T10:30:39.006Z,1.57
2022-12-19T10:33:21.111Z,1.29
2022-12-19T10:36:02.200Z,2.60
2022-12-19T10:38:43.478Z,1.49
2022-12-19T10:41:23.407Z,2.69
2022-12-19T10:44:05.754Z,3.35
2022-12-19T10:46:40.749Z,3.37
2022-12-19T10:49:16.737Z,3.56
2022-12-19T10:51:58.953Z,3.31
2022-12-19T10:54:33.574Z,3.76
2022-12-19T10:57:23.036Z,3.77
2022-12-19T11:00:00.843Z,3.69
2022-12-19T11:02:41.715Z,3.36
2022-12-19T11:05:26.407Z,4.05
2022-12-19T11:08:03.420Z,3.59
2022-12-19T11:11:19.698Z,3.76
2022-12-19T11:18:28.466Z,3.74
2022-12-19T11:21:53.440Z,3.15
2022-12-19T11:29:16.963Z,2.92
2022-12-19T11:29:40.000Z,3.77
2022-12-19T11:30:21.355Z,3.97
2022-12-19T11:30:37.385Z,4.11
2022-12-19T11:34:08.158Z,3.74
2022-12-19T11:36:48.940Z,3.61
2022-12-19T11:39:29.982Z,3.87
2022-12-19T11:42:11.971Z,3.25
2022-12-19T11:44:49.109Z,3.90
2022-12-19T11:47:34.931Z,2.30
2022-12-19T11:50:14.549Z,3.49
2022-12-19T11:53:04.216Z,3.62
2022-12-19T11:55:44.991Z,3.41
2022-12-19T11:58:14.800Z,2.81
2022-12-19T12:00:55.374Z,3.79
2022-12-19T12:04:02.541Z,3.94
2022-12-19T12:06:45.294Z,3.97
2022-12-19T12:13:40.224Z,3.16
2022-12-19T12:19:10.325Z,3.99
2022-12-19T12:27:57.931Z,4.08
2022-12-19T12:31:05.201Z,4.15
2022-12-19T12:31:31.376Z,3.20
2022-12-19T12:31:41.206Z,4.17
2022-12-19T12:31:51.389Z,3.98
2022-12-19T12:35:33.274Z,3.86
2022-12-19T12:38:16.664Z,3.08
2022-12-19T12:40:31.861Z,3.75
2022-12-19T12:43:12.754Z,3.79
2022-12-19T12:45:44.955Z,3.70
2022-12-19T12:48:28.508Z,3.75
2022-12-19T12:51:01.382Z,2.54
2022-12-19T12:53:36.397Z,3.77
2022-12-19T12:56:11.681Z,3.69
2022-12-19T12:59:21.576Z,3.61
2022-12-19T13:01:56.747Z,3.42
2022-12-19T13:04:42.137Z,3.32
2022-12-19T13:07:29.899Z,3.29
2022-12-19T13:10:26.133Z,3.23
2022-12-19T13:13:04.372Z,3.31
2022-12-19T13:15:43.616Z,3.31
2022-12-19T13:18:37.608Z,3.01
2022-12-19T13:21:10.735Z,3.16
2022-12-19T13:24:15.984Z,3.08
2022-12-19T13:26:51.076Z,3.03
2022-12-19T13:29:51.310Z,2.88
2022-12-19T13:32:19.855Z,2.62
2022-12-19T13:35:32.863Z,1.63
2022-12-19T13:40:02.078Z,2.61
2022-12-19T13:41:01.967Z,2.68
2022-12-19T13:43:49.724Z,2.66
2022-12-19T13:46:42.594Z,2.11
2022-12-19T13:49:20.547Z,2.61
2022-12-19T13:51:55.056Z,2.67
2022-12-19T13:54:29.174Z,2.51
2022-12-19T13:57:09.328Z,2.09
2022-12-19T13:59:45.614Z,2.59
2022-12-19T14:02:34.852Z,2.54
2022-12-19T14:05:48.516Z,2.52
2022-12-19T14:08:22.763Z,2.44
2022-12-19T14:11:41.815Z,2.12
2022-12-19T14:14:16.393Z,1.75
2022-12-19T14:16:46.684Z,2.38
2022-12-19T14:19:27.766Z,2.33
2022-12-19T14:22:15.617Z,2.33
2022-12-19T14:25:33.257Z,2.00
2022-12-19T14:28:19.135Z,2.00
2022-12-19T14:30:55.817Z,1.99
2022-12-19T14:33:46.477Z,1.77
2022-12-19T14:36:28.767Z,2.12
2022-12-19T14:39:24.280Z,1.40
2022-12-19T14:42:19.020Z,1.81
2022-12-19T14:52:36.015Z,1.86
2022-12-19T14:53:51.973Z,2.31
2022-12-19T14:54:04.080Z,2.28
2022-12-19T14:54:35.865Z,1.74
2022-12-19T14:56:56.093Z,1.86
2022-12-19T14:59:06.998Z,2.21
2022-12-19T15:01:37.067Z,2.22
2022-12-19T15:04:50.971Z,1.65
2022-12-19T15:07:12.501Z,2.18
2022-12-19T15:11:07.921Z,2.20
2022-12-19T15:14:51.284Z,2.24
2022-12-19T15:16:08.306Z,2.26
2022-12-19T15:18:42.571Z,2.26
2022-12-19T15:21:14.899Z,2.11
2022-12-19T15:23:46.032Z,2.04
2022-12-19T15:26:19.544Z,2.23
2022-12-19T15:28:52.095Z,2.03
2022-12-19T15:31:34.765Z,2.31
2022-12-19T15:34:38.095Z,2.30
2022-12-19T15:37:09.581Z,2.26
2022-12-19T15:39:38.896Z,2.19
2022-12-19T15:42:20.156Z,2.34
2022-12-19T15:44:50.871Z,2.22
2022-12-19T15:47:30.809Z,1.32
2022-12-19T15:50:02.870Z,1.82
2022-12-19T15:52:32.113Z,2.44
2022-12-19T15:55:01.461Z,2.47
2022-12-19T15:57:37.811Z,2.47
2022-12-19T16:00:16.708Z,2.33
2022-12-19T16:05:34.026Z,1.93
2022-12-19T16:08:02.404Z,2.45
2022-12-19T16:10:31.092Z,2.41
2022-12-19T16:13:01.094Z,2.38
2022-12-19T16:15:34.424Z,2.43
2022-12-19T16:18:05.062Z,2.45
2022-12-19T16:20:37.701Z,2.39
2022-12-19T16:23:07.186Z,2.19
2022-12-19T16:25:40.332Z,2.43
2022-12-19T16:28:19.429Z,2.44
2022-12-19T16:30:50.403Z,2.24
2022-12-19T16:33:23.971Z,1.97
2022-12-19T16:36:08.855Z,2.45
2022-12-19T16:38:37.591Z,2.45
2022-12-19T16:41:06.350Z,2.16
2022-12-19T16:43:41.499Z,2.37
2022-12-19T16:46:18.942Z,2.00
2022-12-19T16:48:48.483Z,2.50
2022-12-19T16:51:23.597Z,2.03
2022-12-19T16:53:57.563Z,2.25
2022-12-19T16:56:31.504Z,2.51
2022-12-19T16:59:05.790Z,2.35
2022-12-19T17:01:34.349Z,2.24
2022-12-19T17:04:04.161Z,1.91
2022-12-19T17:06:32.997Z,2.53
2022-12-19T17:09:01.704Z,2.53
2022-12-19T17:11:31.987Z,2.37
2022-12-19T17:14:05.691Z,2.62
2022-12-19T17:16:34.292Z,2.55
2022-12-19T17:19:03.149Z,2.61
2022-12-19T17:21:31.645Z,1.68
2022-12-19T17:23:59.926Z,2.62
2022-12-19T17:26:28.629Z,2.09
2022-12-19T17:28:57.285Z,2.64
2022-12-19T17:31:37.908Z,2.54
2022-12-19T17:34:09.338Z,2.28
2022-12-19T17:36:38.399Z,1.69
2022-12-19T17:39:20.340Z,2.65
2022-12-19T17:41:51.425Z,2.57
2022-12-19T17:44:20.352Z,2.53
2022-12-19T17:46:50.082Z,2.71
2022-12-19T17:49:24.886Z,2.73
2022-12-19T17:51:54.061Z,2.71
2022-12-19T17:54:23.942Z,2.65
2022-12-19T17:56:53.000Z,2.68
2022-12-19T17:59:21.891Z,2.69
2022-12-19T18:01:51.757Z,2.11
2022-12-19T18:04:21.980Z,1.88
2022-12-19T18:06:51.668Z,2.65
2022-12-19T18:09:21.520Z,2.50
2022-12-19T18:11:53.402Z,2.63
2022-12-19T18:14:22.028Z,2.62
2022-12-19T18:16:54.385Z,2.54
2022-12-19T18:19:25.912Z,2.70
2022-12-19T18:21:54.235Z,2.62
2022-12-19T18:24:23.356Z,2.74
2022-12-19T18:26:52.107Z,2.76
2022-12-19T18:29:20.545Z,2.53
2022-12-19T18:31:51.218Z,2.74
2022-12-19T18:34:25.141Z,2.79
2022-12-19T18:36:58.746Z,2.72
2022-12-19T18:39:34.345Z,2.82
2022-12-19T18:42:21.221Z,2.43
2022-12-19T18:44:50.677Z,2.89
2022-12-19T18:47:25.526Z,2.16
2022-12-19T18:49:55.344Z,1.41
2022-12-19T18:52:24.048Z,2.83
2022-12-19T18:54:52.766Z,2.51
2022-12-19T18:57:21.478Z,2.93
2022-12-19T18:59:50.238Z,2.87
2022-12-19T19:02:27.711Z,2.91
2022-12-19T19:04:59.983Z,2.45
2022-12-19T19:07:28.458Z,2.23
2022-12-19T19:09:56.816Z,2.58
2022-12-19T19:12:48.661Z,2.67
2022-12-19T19:15:19.331Z,2.95
2022-12-19T19:17:54.361Z,2.93
2022-12-19T19:20:24.476Z,1.95
2022-12-19T19:22:54.095Z,2.79
2022-12-19T19:25:23.231Z,2.44
2022-12-19T19:27:52.031Z,2.88
2022-12-19T19:30:21.727Z,2.75
2022-12-19T19:33:00.306Z,2.18
2022-12-19T19:35:30.459Z,2.92
2022-12-19T19:38:06.679Z,2.92
2022-12-19T19:40:35.737Z,2.67
2022-12-19T19:43:07.021Z,2.73
2022-12-19T19:45:41.174Z,2.93
2022-12-19T19:48:12.139Z,2.96
2022-12-19T19:50:41.919Z,2.97
2022-12-19T19:53:10.646Z,3.02
2022-12-19T19:55:40.434Z,3.00
2022-12-19T19:58:08.780Z,3.03
2022-12-19T20:00:37.321Z,3.06
2022-12-19T20:03:09.597Z,2.73
2022-12-19T20:05:38.380Z,2.77
2022-12-19T20:08:08.386Z,3.12
2022-12-19T20:10:36.728Z,3.17
2022-12-19T20:13:05.099Z,3.02
2022-12-19T20:15:33.647Z,3.16
2022-12-19T20:18:02.012Z,3.07
2022-12-19T20:20:30.299Z,2.98
2022-12-19T20:22:58.565Z,3.17
2022-12-19T20:25:28.352Z,3.14
2022-12-19T20:27:56.741Z,2.90
2022-12-19T20:30:27.199Z,3.13
2022-12-19T20:32:55.969Z,3.11
2022-12-19T20:35:24.293Z,3.09
2022-12-19T20:37:52.619Z,3.00
2022-12-19T20:40:21.330Z,3.09
2022-12-19T20:42:51.038Z,2.91
2022-12-19T20:45:19.497Z,2.88
2022-12-19T20:47:49.316Z,3.15
2022-12-19T20:50:18.055Z,3.09
2022-12-19T20:52:46.760Z,3.09
2022-12-19T20:55:16.445Z,3.03
2022-12-19T20:57:45.010Z,2.97
2022-12-19T21:00:25.173Z,2.92
2022-12-19T21:03:26.373Z,2.92
2022-12-19T21:05:52.845Z,2.38
2022-12-19T21:08:28.486Z,2.25
2022-12-19T21:10:57.634Z,2.74
2022-12-19T21:13:26.199Z,2.35
2022-12-19T21:15:58.508Z,2.58
2022-12-19T21:18:28.434Z,2.73
2022-12-19T21:20:57.925Z,2.40
2022-12-19T21:23:29.368Z,2.67
2022-12-19T21:25:59.940Z,2.48
2022-12-19T21:28:29.293Z,2.68
2022-12-19T21:31:02.794Z,2.70
2022-12-19T21:33:31.893Z,1.54
2022-12-19T21:36:08.090Z,2.68
2022-12-19T21:38:38.168Z,2.71
2022-12-19T21:41:09.079Z,2.62
2022-12-19T21:43:38.034Z,2.64
2022-12-19T21:46:13.811Z,2.39
2022-12-19T21:48:44.285Z,2.13
2022-12-19T21:51:14.752Z,2.54
2022-12-19T21:53:43.804Z,2.50
2022-12-19T21:56:24.700Z,2.46
2022-12-19T21:58:56.854Z,2.45
2022-12-19T22:01:27.801Z,2.43
2022-12-19T22:04:01.068Z,2.37
2022-12-19T22:06:33.034Z,2.35
2022-12-19T22:09:02.697Z,2.34
2022-12-19T22:11:31.668Z,2.36
2022-12-19T22:14:00.893Z,2.32
2022-12-19T22:16:30.840Z,2.06
2022-12-19T22:18:59.300Z,2.32
2022-12-19T22:21:28.368Z,2.31
2022-12-19T22:23:59.053Z,2.34
2022-12-19T22:26:29.658Z,2.42
2022-12-19T22:28:59.559Z,2.24
2022-12-19T22:31:32.316Z,2.51
2022-12-19T22:34:03.384Z,2.25
2022-12-19T22:36:33.683Z,2.57
2022-12-19T22:39:05.723Z,2.35
2022-12-19T22:41:35.659Z,2.67
2022-12-19T22:44:05.182Z,2.54
2022-12-19T22:46:38.173Z,2.69
2022-12-19T22:49:09.729Z,2.84
2022-12-19T22:51:38.999Z,2.78
2022-12-19T22:54:07.968Z,2.92
2022-12-19T22:56:37.308Z,2.93
2022-12-19T22:59:09.194Z,2.93
2022-12-19T23:01:42.159Z,2.90
2022-12-19T23:04:15.115Z,2.86
2022-12-19T23:06:46.300Z,2.59
2022-12-19T23:09:18.766Z,2.87
2022-12-19T23:11:51.405Z,2.87
2022-12-19T23:14:21.799Z,2.86
2022-12-19T23:16:51.526Z,2.87
2022-12-19T23:19:20.185Z,2.69
2022-12-19T23:21:49.006Z,2.80
2022-12-19T23:24:21.415Z,2.65
2022-12-19T23:26:52.077Z,2.62
2022-12-19T23:29:21.311Z,2.70
2022-12-19T23:31:50.971Z,2.67
2022-12-19T23:34:19.664Z,2.62
2022-12-19T23:39:36.749Z,2.16
2022-12-19T23:42:05.385Z,2.16
2022-12-19T23:44:35.071Z,2.08
2022-12-19T23:47:04.903Z,2.22
2022-12-19T23:49:35.968Z,2.26
2022-12-19T23:52:04.763Z,2.21
2022-12-19T23:54:33.164Z,1.62
2022-12-19T23:57:04.715Z,2.11
2022-12-19T23:59:33.341Z,2.07
